Time;durP1;ratioP1;P1;durP2;ratioP2;P2;SDS_P1;SDS_P2;PMS_P1;PMS_P2;Temp;Humidity;BMP_temperature;BMP_pressure;BME280_temperature;BME280_humidity;BME280_pressure;Samples;Min_cycle;Max_cycle;Signal;HPM_P1;HPM_P2
2023/12/19 00:01:34;;;;;;;66.63;37.03;;;;;;;;;;4975985;28;20053;-75
2023/12/19 00:04:00;;;;;;;62.72;35.20;;;;;;;;;;4972869;28;20147;-75
2023/12/19 00:06:26;;;;;;;55.85;33.58;;;;;;;;;;4971351;28;20449;-75
2023/12/19 00:08:52;;;;;;;58.90;33.75;;;;;;;;;;4971098;28;20043;-75
2023/12/19 00:11:18;;;;;;;59.10;34.70;;;;;;;;;;4974766;28;20050;-74
2023/12/19 00:13:44;;;;;;;60.05;35.85;;;;;;;;;;4974481;28;20042;-74
2023/12/19 00:16:11;;;;;;;61.08;34.67;;;;;;;;;;4975471;28;20046;-75
2023/12/19 00:18:37;;;;;;;63.40;35.95;;;;;;;;;;4974133;28;20492;-74
2023/12/19 00:21:03;;;;;;;59.15;34.70;;;;;;;;;;4942350;28;20485;-74
2023/12/19 00:23:30;;;;;;;59.88;34.72;;;;;;;;;;4966964;28;20392;-74
2023/12/19 00:25:58;;;;;;;50.35;31.80;;;;;;;;;;4975365;28;20065;-74
2023/12/19 00:28:24;;;;;;;53.17;30.83;;;;;;;;;;4975338;28;20544;-74
2023/12/19 00:30:50;;;;;;;45.55;27.70;;;;;;;;;;4975330;28;20039;-74
2023/12/19 00:33:16;;;;;;;45.97;27.77;;;;;;;;;;4975772;28;20058;-74
2023/12/19 00:35:42;;;;;;;40.53;26.70;;;;;;;;;;4975243;28;20046;-74
2023/12/19 00:38:08;;;;;;;39.08;25.67;;;;;;;;;;4974234;28;20055;-74
2023/12/19 00:40:36;;;;;;;38.83;24.42;;;;;;;;;;4975008;28;20054;-74
2023/12/19 00:43:02;;;;;;;37.92;25.35;;;;;;;;;;4974195;28;20492;-74
2023/12/19 00:45:28;;;;;;;33.88;24.40;;;;;;;;;;4972509;28;20559;-74
2023/12/19 00:47:54;;;;;;;36.50;25.27;;;;;;;;;;4974704;28;20508;-74
2023/12/19 00:50:20;;;;;;;37.90;24.65;;;;;;;;;;4984436;28;20519;-74
2023/12/19 00:52:46;;;;;;;37.55;25.33;;;;;;;;;;4974914;28;20532;-74
2023/12/19 00:55:12;;;;;;;36.08;24.75;;;;;;;;;;4971620;28;20540;-74
2023/12/19 00:57:39;;;;;;;39.08;25.85;;;;;;;;;;4974305;28;20047;-74
2023/12/19 01:00:05;;;;;;;39.85;25.88;;;;;;;;;;4974147;28;20051;-74
2023/12/19 01:02:31;;;;;;;39.60;26.05;;;;;;;;;;4974453;28;20404;-74
2023/12/19 01:05:00;;;;;;;40.20;25.80;;;;;;;;;;4974883;28;20050;-74
2023/12/19 01:07:26;;;;;;;41.60;26.33;;;;;;;;;;4974404;28;20519;-74
2023/12/19 01:09:55;;;;;;;38.10;24.48;;;;;;;;;;4974968;28;20085;-74
2023/12/19 01:12:21;;;;;;;40.38;24.33;;;;;;;;;;4973117;28;20126;-74
2023/12/19 01:14:54;;;;;;;34.90;23.88;;;;;;;;;;5141619;27;20396;-75
2023/12/19 01:17:20;;;;;;;37.97;23.27;;;;;;;;;;5114618;28;20060;-75
2023/12/19 01:19:46;;;;;;;37.55;25.20;;;;;;;;;;5123075;28;20051;-75
2023/12/19 01:22:12;;;;;;;37.35;24.73;;;;;;;;;;5115045;28;20515;-75
2023/12/19 01:24:38;;;;;;;37.45;24.17;;;;;;;;;;5110548;28;20417;-75
2023/12/19 01:27:05;;;;;;;39.05;24.38;;;;;;;;;;5117989;28;20388;-75
2023/12/19 01:29:31;;;;;;;35.45;24.25;;;;;;;;;;5108495;28;20036;-75
2023/12/19 01:31:57;;;;;;;39.85;24.70;;;;;;;;;;5119166;28;20043;-75
2023/12/19 01:34:23;;;;;;;36.28;23.90;;;;;;;;;;5108400;28;20470;-74
2023/12/19 01:36:49;;;;;;;38.78;25.13;;;;;;;;;;5108471;28;20044;-75
2023/12/19 01:39:15;;;;;;;40.33;24.80;;;;;;;;;;5109753;28;20581;-75
2023/12/19 01:41:42;;;;;;;39.35;25.45;;;;;;;;;;5097509;28;20093;-75
2023/12/19 01:44:17;;;;;;;41.22;25.95;;;;;;;;;;5109732;28;20382;-75
2023/12/19 01:46:43;;;;;;;34.30;23.13;;;;;;;;;;5100395;28;20048;-75
2023/12/19 01:49:09;;;;;;;33.85;22.73;;;;;;;;;;5093981;28;20146;-75
2023/12/19 01:51:35;;;;;;;33.47;22.98;;;;;;;;;;5108926;28;20543;-75
2023/12/19 01:54:03;;;;;;;34.53;22.17;;;;;;;;;;5096664;28;20044;-74
2023/12/19 01:56:29;;;;;;;29.58;20.52;;;;;;;;;;5091163;28;20048;-75
2023/12/19 01:58:56;;;;;;;28.00;19.95;;;;;;;;;;5095041;28;20371;-75
2023/12/19 02:01:22;;;;;;;26.90;19.85;;;;;;;;;;5098097;28;20409;-75
2023/12/19 02:03:48;;;;;;;26.23;18.67;;;;;;;;;;5101620;28;20068;-75
2023/12/19 02:06:15;;;;;;;26.35;18.58;;;;;;;;;;5089581;28;20045;-75
2023/12/19 02:08:41;;;;;;;24.65;17.77;;;;;;;;;;5103919;28;20040;-75
2023/12/19 02:11:07;;;;;;;28.17;19.40;;;;;;;;;;5109849;28;20134;-75
2023/12/19 02:13:33;;;;;;;23.95;18.13;;;;;;;;;;5107770;28;20063;-75
2023/12/19 02:15:59;;;;;;;26.17;18.83;;;;;;;;;;5091642;28;20055;-75
2023/12/19 02:18:25;;;;;;;26.00;19.17;;;;;;;;;;5102855;28;20044;-75
2023/12/19 02:20:53;;;;;;;24.38;17.98;;;;;;;;;;5093185;28;20093;-75
2023/12/19 02:23:19;;;;;;;26.17;18.42;;;;;;;;;;5108288;28;20047;-75
2023/12/19 02:25:46;;;;;;;24.25;18.63;;;;;;;;;;5098041;28;20048;-75
2023/12/19 02:28:12;;;;;;;23.42;18.17;;;;;;;;;;5094986;28;20055;-75
2023/12/19 02:30:39;;;;;;;26.75;18.50;;;;;;;;;;5095017;28;20478;-75
2023/12/19 02:33:05;;;;;;;23.30;17.27;;;;;;;;;;5094866;28;20051;-75
2023/12/19 02:35:31;;;;;;;26.60;18.98;;;;;;;;;;5076326;28;20121;-75
2023/12/19 02:37:57;;;;;;;27.15;19.23;;;;;;;;;;5095120;28;20040;-75
2023/12/19 02:40:24;;;;;;;26.27;18.33;;;;;;;;;;5084656;28;20041;-75
2023/12/19 02:42:50;;;;;;;25.45;18.67;;;;;;;;;;5071036;28;20047;-75
2023/12/19 02:45:16;;;;;;;28.27;19.58;;;;;;;;;;5094750;28;20475;-75
2023/12/19 02:47:43;;;;;;;26.83;19.05;;;;;;;;;;5094922;28;20055;-75
2023/12/19 02:50:09;;;;;;;26.98;18.70;;;;;;;;;;5093368;28;20089;-75
2023/12/19 02:52:35;;;;;;;24.00;18.10;;;;;;;;;;5080746;28;20051;-75
2023/12/19 02:55:01;;;;;;;26.20;19.27;;;;;;;;;;5084931;28;20040;-75
2023/12/19 02:57:27;;;;;;;28.15;19.27;;;;;;;;;;5065158;28;20131;-75
2023/12/19 02:59:53;;;;;;;27.70;19.27;;;;;;;;;;5075303;28;20052;-75
2023/12/19 03:02:19;;;;;;;31.63;20.38;;;;;;;;;;5084217;28;20051;-75
2023/12/19 03:04:45;;;;;;;25.88;18.08;;;;;;;;;;5084044;28;20044;-75
2023/12/19 03:07:11;;;;;;;23.92;18.05;;;;;;;;;;5074236;28;20044;-75
2023/12/19 03:09:37;;;;;;;24.75;17.52;;;;;;;;;;5078147;28;20044;-75
2023/12/19 03:12:05;;;;;;;22.48;16.80;;;;;;;;;;5082316;28;20056;-75
2023/12/19 03:14:31;;;;;;;23.00;16.98;;;;;;;;;;5040275;28;20060;-75
2023/12/19 03:16:57;;;;;;;21.40;15.45;;;;;;;;;;5078734;28;20048;-75
2023/12/19 03:19:24;;;;;;;23.17;17.08;;;;;;;;;;5079108;28;20044;-75
2023/12/19 03:21:50;;;;;;;22.00;15.65;;;;;;;;;;5091890;28;20044;-75
2023/12/19 03:24:16;;;;;;;25.17;16.40;;;;;;;;;;5089975;28;20128;-75
2023/12/19 03:26:42;;;;;;;19.98;14.52;;;;;;;;;;5093213;28;20494;-75
2023/12/19 03:29:09;;;;;;;18.23;13.80;;;;;;;;;;5094887;28;20090;-74
2023/12/19 03:31:35;;;;;;;18.42;13.50;;;;;;;;;;5093657;28;20051;-75
2023/12/19 03:34:04;;;;;;;20.02;15.18;;;;;;;;;;5094532;28;20043;-75
2023/12/19 03:36:30;;;;;;;19.35;14.20;;;;;;;;;;5092805;28;20390;-75
2023/12/19 03:38:56;;;;;;;19.40;14.48;;;;;;;;;;5094634;28;20382;-75
2023/12/19 03:41:22;;;;;;;21.20;14.75;;;;;;;;;;5092936;28;20440;-75
2023/12/19 03:43:48;;;;;;;19.73;14.20;;;;;;;;;;5094119;28;20082;-75
2023/12/19 03:46:14;;;;;;;17.55;12.98;;;;;;;;;;5074390;28;20510;-75
2023/12/19 03:48:45;;;;;;;18.33;13.38;;;;;;;;;;5082908;28;20406;-75
2023/12/19 03:51:11;;;;;;;19.58;13.82;;;;;;;;;;5094368;28;20051;-75
2023/12/19 03:53:37;;;;;;;17.33;12.85;;;;;;;;;;5090906;28;20047;-75
2023/12/19 03:56:04;;;;;;;16.98;11.95;;;;;;;;;;5094360;28;20048;-75
2023/12/19 03:58:30;;;;;;;19.70;13.00;;;;;;;;;;5077954;28;20077;-75
2023/12/19 04:00:56;;;;;;;17.20;12.93;;;;;;;;;;5083116;28;20044;-75
2023/12/19 04:03:22;;;;;;;19.33;13.00;;;;;;;;;;5076081;28;20081;-75
2023/12/19 04:05:48;;;;;;;18.65;13.18;;;;;;;;;;5093935;28;20354;-75
2023/12/19 04:08:14;;;;;;;19.52;13.07;;;;;;;;;;5093797;28;20093;-75
2023/12/19 04:10:40;;;;;;;17.48;12.35;;;;;;;;;;5093712;28;20044;-75
2023/12/19 04:13:06;;;;;;;20.33;13.73;;;;;;;;;;5082843;28;20060;-75
2023/12/19 04:15:33;;;;;;;17.77;12.18;;;;;;;;;;5073549;28;20049;-75
2023/12/19 04:17:59;;;;;;;20.33;14.55;;;;;;;;;;5083276;28;20089;-75
2023/12/19 04:20:25;;;;;;;20.35;14.07;;;;;;;;;;5093755;28;20051;-75
2023/12/19 04:22:51;;;;;;;23.15;14.25;;;;;;;;;;5088451;28;20044;-75
2023/12/19 04:25:17;;;;;;;23.35;15.38;;;;;;;;;;5074758;28;20044;-75
2023/12/19 04:27:43;;;;;;;21.63;14.98;;;;;;;;;;5083335;28;20040;-75
2023/12/19 04:30:09;;;;;;;20.98;15.23;;;;;;;;;;5073924;28;20044;-75
2023/12/19 04:32:35;;;;;;;19.38;13.57;;;;;;;;;;5080360;28;20102;-74
2023/12/19 04:35:01;;;;;;;17.83;13.68;;;;;;;;;;5056066;28;20513;-75
2023/12/19 04:37:27;;;;;;;22.38;15.50;;;;;;;;;;5090977;28;20416;-75
2023/12/19 04:39:54;;;;;;;21.33;15.48;;;;;;;;;;5090448;28;20044;-75
2023/12/19 04:42:20;;;;;;;25.27;16.48;;;;;;;;;;5085518;28;20044;-74
2023/12/19 04:44:46;;;;;;;22.98;16.58;;;;;;;;;;5092932;28;20097;-75
2023/12/19 04:47:13;;;;;;;25.08;16.95;;;;;;;;;;5080601;28;20052;-74
2023/12/19 04:49:39;;;;;;;21.13;14.75;;;;;;;;;;5089330;28;20501;-75
2023/12/19 04:52:05;;;;;;;20.08;14.05;;;;;;;;;;5079784;28;20055;-75
2023/12/19 04:54:32;;;;;;;19.00;13.05;;;;;;;;;;5087344;28;20040;-75
2023/12/19 04:56:58;;;;;;;20.50;13.43;;;;;;;;;;5089236;28;20510;-74
2023/12/19 04:59:24;;;;;;;19.13;13.07;;;;;;;;;;5090626;28;20044;-75
2023/12/19 05:01:50;;;;;;;18.13;12.98;;;;;;;;;;5092425;28;20048;-75
2023/12/19 05:04:17;;;;;;;17.88;11.98;;;;;;;;;;5093095;28;20048;-75
2023/12/19 05:06:43;;;;;;;21.00;12.70;;;;;;;;;;5083790;28;20080;-75
2023/12/19 05:09:09;;;;;;;19.30;12.02;;;;;;;;;;5078937;28;20409;-75
2023/12/19 05:11:36;;;;;;;15.95;11.13;;;;;;;;;;5092406;28;20040;-75
2023/12/19 05:14:02;;;;;;;18.67;11.65;;;;;;;;;;5092627;28;20056;-75
2023/12/19 05:16:28;;;;;;;14.73;10.48;;;;;;;;;;5092394;28;20437;-75
2023/12/19 05:18:55;;;;;;;17.05;10.55;;;;;;;;;;5084663;28;20090;-75
2023/12/19 05:21:21;;;;;;;15.35;9.98;;;;;;;;;;5075432;28;20574;-75
2023/12/19 05:23:47;;;;;;;14.13;9.57;;;;;;;;;;5092636;28;20036;-75
2023/12/19 05:26:13;;;;;;;13.50;9.40;;;;;;;;;;5087289;28;20127;-75
2023/12/19 05:28:40;;;;;;;14.63;9.38;;;;;;;;;;5086793;28;20045;-75
2023/12/19 05:31:07;;;;;;;13.95;9.38;;;;;;;;;;5092101;28;20142;-75
2023/12/19 05:33:34;;;;;;;13.45;9.38;;;;;;;;;;5090209;28;20115;-75
2023/12/19 05:36:00;;;;;;;13.15;8.90;;;;;;;;;;5075629;28;20051;-75
2023/12/19 05:38:27;;;;;;;12.88;8.90;;;;;;;;;;5087484;28;20048;-75
2023/12/19 05:40:57;;;;;;;13.52;9.45;;;;;;;;;;5072584;28;20066;-75
2023/12/19 05:43:23;;;;;;;12.73;9.00;;;;;;;;;;5076625;28;20732;-75
2023/12/19 05:45:50;;;;;;;14.05;9.20;;;;;;;;;;5091569;28;20397;-75
2023/12/19 05:48:16;;;;;;;14.50;9.30;;;;;;;;;;5085652;28;20048;-75
2023/12/19 05:50:43;;;;;;;16.27;9.65;;;;;;;;;;5075693;28;20047;-75
2023/12/19 05:53:09;;;;;;;13.75;9.18;;;;;;;;;;5087279;28;20043;-75
2023/12/19 05:55:35;;;;;;;12.35;9.00;;;;;;;;;;5075824;28;20413;-75
2023/12/19 05:58:01;;;;;;;14.07;9.68;;;;;;;;;;5076478;28;20052;-74
2023/12/19 06:00:27;;;;;;;12.90;9.27;;;;;;;;;;5081958;28;20036;-74
2023/12/19 06:02:53;;;;;;;12.68;8.68;;;;;;;;;;5086968;28;20520;-75
2023/12/19 06:05:20;;;;;;;12.50;8.70;;;;;;;;;;5095728;28;20370;-74
2023/12/19 06:07:46;;;;;;;13.75;9.18;;;;;;;;;;5094061;28;20079;-75
2023/12/19 06:10:13;;;;;;;12.45;8.30;;;;;;;;;;5090717;28;20089;-75
2023/12/19 06:12:40;;;;;;;13.18;8.45;;;;;;;;;;5076660;28;20444;-75
2023/12/19 06:15:08;;;;;;;12.63;8.75;;;;;;;;;;5091008;28;20102;-75
2023/12/19 06:17:35;;;;;;;12.10;8.35;;;;;;;;;;5089686;28;20552;-75
2023/12/19 06:20:01;;;;;;;11.02;8.00;;;;;;;;;;5085661;28;20045;-75
2023/12/19 06:22:28;;;;;;;12.57;8.02;;;;;;;;;;5082521;28;20055;-75
2023/12/19 06:24:54;;;;;;;12.48;8.20;;;;;;;;;;5078466;28;20512;-75
2023/12/19 06:27:21;;;;;;;12.80;7.68;;;;;;;;;;5094401;28;20420;-75
2023/12/19 06:29:47;;;;;;;12.93;8.85;;;;;;;;;;5083448;28;20044;-75
2023/12/19 06:32:13;;;;;;;11.25;7.55;;;;;;;;;;5077738;28;20401;-75
2023/12/19 06:34:39;;;;;;;10.80;7.63;;;;;;;;;;5089599;28;20374;-75
2023/12/19 06:37:05;;;;;;;10.82;7.57;;;;;;;;;;5082490;28;20040;-75
2023/12/19 06:39:31;;;;;;;10.30;7.38;;;;;;;;;;5075899;28;20413;-75
2023/12/19 06:41:57;;;;;;;10.35;7.20;;;;;;;;;;5077039;28;20422;-75
2023/12/19 06:44:23;;;;;;;11.07;7.63;;;;;;;;;;5090804;28;20555;-75
2023/12/19 06:46:52;;;;;;;10.88;7.53;;;;;;;;;;5079939;28;20502;-75
2023/12/19 06:49:19;;;;;;;10.70;7.20;;;;;;;;;;5055901;28;20538;-75
2023/12/19 06:51:45;;;;;;;11.68;7.45;;;;;;;;;;5083625;28;20036;-75
2023/12/19 06:54:11;;;;;;;11.25;7.47;;;;;;;;;;5075094;28;20463;-75
2023/12/19 06:56:37;;;;;;;11.10;7.82;;;;;;;;;;5078802;28;20131;-75
2023/12/19 06:59:06;;;;;;;12.57;7.60;;;;;;;;;;5095895;28;20044;-75
2023/12/19 07:01:32;;;;;;;10.32;7.03;;;;;;;;;;5095336;28;20051;-75
2023/12/19 07:03:58;;;;;;;12.00;8.25;;;;;;;;;;5076254;28;20044;-75
2023/12/19 07:06:25;;;;;;;11.00;7.00;;;;;;;;;;5094930;28;20063;-75
2023/12/19 07:08:51;;;;;;;10.80;7.20;;;;;;;;;;5094796;28;20132;-75
2023/12/19 07:11:18;;;;;;;11.73;8.35;;;;;;;;;;5076889;28;20104;-75
2023/12/19 07:13:44;;;;;;;10.00;7.22;;;;;;;;;;5076689;28;20083;-75
2023/12/19 07:16:17;;;;;;;10.43;7.03;;;;;;;;;;5076882;28;20102;-74
2023/12/19 07:18:47;;;;;;;11.98;7.80;;;;;;;;;;5094887;28;20048;-74
2023/12/19 07:21:20;;;;;;;15.68;8.15;;;;;;;;;;5090820;28;20032;-75
2023/12/19 07:23:46;;;;;;;10.90;6.70;;;;;;;;;;5090679;28;20051;-75
2023/12/19 07:26:20;;;;;;;10.60;7.53;;;;;;;;;;5090204;28;20044;-75
2023/12/19 07:28:46;;;;;;;10.45;6.93;;;;;;;;;;5075295;28;20067;-74
2023/12/19 07:31:25;;;;;;;11.75;7.68;;;;;;;;;;5056345;28;20041;-75
2023/12/19 07:33:55;;;;;;;11.20;7.57;;;;;;;;;;5074106;28;20051;-75
2023/12/19 07:36:21;;;;;;;11.05;7.35;;;;;;;;;;5074495;28;20045;-75
2023/12/19 07:38:48;;;;;;;10.85;7.78;;;;;;;;;;5076905;28;20052;-74
2023/12/19 07:41:14;;;;;;;10.82;7.50;;;;;;;;;;5082695;28;20434;-75
2023/12/19 07:43:40;;;;;;;11.55;7.43;;;;;;;;;;5081380;28;20394;-75
2023/12/19 07:46:07;;;;;;;12.25;7.75;;;;;;;;;;5080059;28;20485;-75
2023/12/19 07:48:33;;;;;;;11.48;7.07;;;;;;;;;;5090684;28;20135;-75
2023/12/19 07:50:59;;;;;;;12.35;8.07;;;;;;;;;;5091600;28;20094;-75
2023/12/19 07:53:26;;;;;;;11.32;7.65;;;;;;;;;;5083619;28;20442;-75
2023/12/19 07:55:52;;;;;;;11.43;7.57;;;;;;;;;;5075973;28;20147;-74
2023/12/19 07:58:18;;;;;;;12.07;7.88;;;;;;;;;;5089202;28;20123;-74
2023/12/19 08:00:44;;;;;;;13.18;8.18;;;;;;;;;;5082237;28;20048;-74
2023/12/19 08:03:11;;;;;;;13.18;8.05;;;;;;;;;;5062017;28;20040;-75
2023/12/19 08:05:39;;;;;;;11.52;7.88;;;;;;;;;;5087163;28;20532;-75
2023/12/19 08:08:06;;;;;;;11.43;7.63;;;;;;;;;;5085225;28;20090;-75
2023/12/19 08:10:32;;;;;;;11.82;7.35;;;;;;;;;;5092274;28;20040;-75
2023/12/19 08:12:58;;;;;;;10.20;7.05;;;;;;;;;;5080996;28;20052;-75
2023/12/19 08:15:24;;;;;;;12.73;8.18;;;;;;;;;;5075651;28;20455;-74
2023/12/19 08:17:50;;;;;;;13.57;8.10;;;;;;;;;;5092045;28;20531;-75
2023/12/19 08:20:16;;;;;;;12.55;7.75;;;;;;;;;;5087289;28;20474;-75
2023/12/19 08:22:42;;;;;;;12.70;7.75;;;;;;;;;;5086174;28;20172;-75
2023/12/19 08:25:08;;;;;;;12.38;7.60;;;;;;;;;;5076068;28;20046;-74
2023/12/19 08:27:35;;;;;;;11.43;7.53;;;;;;;;;;5053691;28;20044;-74
2023/12/19 08:30:05;;;;;;;12.15;7.47;;;;;;;;;;5058646;28;20074;-75
2023/12/19 08:32:31;;;;;;;12.43;7.03;;;;;;;;;;5040501;28;20238;-75
2023/12/19 08:34:58;;;;;;;11.55;6.72;;;;;;;;;;5080548;28;20067;-75
2023/12/19 08:37:25;;;;;;;12.95;7.35;;;;;;;;;;5091056;28;20378;-74
2023/12/19 08:39:54;;;;;;;12.65;6.60;;;;;;;;;;5075382;28;20049;-74
2023/12/19 08:42:23;;;;;;;10.95;6.53;;;;;;;;;;5072571;28;20060;-75
2023/12/19 08:44:54;;;;;;;11.95;7.07;;;;;;;;;;5072416;28;20049;-74
2023/12/19 08:47:20;;;;;;;;;;;;;;;;;;5090267;28;20052;-74
2023/12/19 08:49:47;;;;;;;10.20;6.30;;;;;;;;;;5090575;28;19931;-74
2023/12/19 08:52:13;;;;;;;10.88;5.75;;;;;;;;;;5077195;28;20466;-75
2023/12/19 08:54:40;;;;;;;10.35;6.40;;;;;;;;;;5086838;28;20040;-74
2023/12/19 08:57:06;;;;;;;11.02;6.68;;;;;;;;;;5087307;28;20105;-75
2023/12/19 08:59:32;;;;;;;10.98;6.68;;;;;;;;;;5087952;28;20117;-74
2023/12/19 09:01:58;;;;;;;11.30;6.82;;;;;;;;;;5091884;28;20059;-75
2023/12/19 09:04:24;;;;;;;10.70;6.22;;;;;;;;;;5091752;28;20043;-75
2023/12/19 09:06:51;;;;;;;9.63;6.07;;;;;;;;;;5092315;28;20052;-75
2023/12/19 09:09:17;;;;;;;11.75;6.50;;;;;;;;;;5091499;28;20399;-75
2023/12/19 09:11:43;;;;;;;11.57;6.55;;;;;;;;;;5087680;28;20094;-74
2023/12/19 09:14:13;;;;;;;10.57;6.28;;;;;;;;;;5080071;28;20385;-74
2023/12/19 09:16:39;;;;;;;9.45;6.15;;;;;;;;;;5087543;28;20056;-74
2023/12/19 09:19:05;;;;;;;11.55;6.63;;;;;;;;;;5066647;28;20443;-75
2023/12/19 09:21:34;;;;;;;9.68;6.28;;;;;;;;;;5079252;28;20051;-74
2023/12/19 09:24:00;;;;;;;9.40;6.07;;;;;;;;;;5091822;28;20052;-75
2023/12/19 09:26:27;;;;;;;11.45;6.63;;;;;;;;;;5081998;28;20101;-75
2023/12/19 09:28:55;;;;;;;12.75;6.80;;;;;;;;;;5091041;28;20401;-75
2023/12/19 09:31:22;;;;;;;9.68;5.88;;;;;;;;;;5077811;28;20060;-75
2023/12/19 09:33:48;;;;;;;9.82;6.25;;;;;;;;;;5072292;28;20048;-75
2023/12/19 09:36:21;;;;;;;10.23;5.75;;;;;;;;;;5063402;28;20064;-75
2023/12/19 09:38:47;;;;;;;10.68;5.97;;;;;;;;;;5088369;28;20528;-75
2023/12/19 09:41:14;;;;;;;10.20;5.90;;;;;;;;;;5087968;28;20392;-75
2023/12/19 09:43:40;;;;;;;11.57;6.00;;;;;;;;;;5096146;28;20051;-75
2023/12/19 09:46:07;;;;;;;8.88;5.35;;;;;;;;;;5092607;28;20160;-75
2023/12/19 09:48:35;;;;;;;10.00;5.80;;;;;;;;;;5095121;28;20536;-75
2023/12/19 09:51:02;;;;;;;8.05;4.85;;;;;;;;;;5095037;28;20192;-75
2023/12/19 09:53:31;;;;;;;8.60;4.95;;;;;;;;;;5095199;28;20109;-75
2023/12/19 09:55:57;;;;;;;8.55;5.35;;;;;;;;;;5094350;28;20047;-75
2023/12/19 09:58:23;;;;;;;8.98;5.00;;;;;;;;;;5095206;28;20056;-74
2023/12/19 10:00:51;;;;;;;9.80;5.13;;;;;;;;;;5096681;28;20374;-74
2023/12/19 10:03:17;;;;;;;8.05;4.65;;;;;;;;;;5095210;28;20055;-74
2023/12/19 10:05:44;;;;;;;8.02;4.82;;;;;;;;;;5091662;28;20055;-75
2023/12/19 10:08:10;;;;;;;7.57;4.82;;;;;;;;;;5095189;28;20046;-75
2023/12/19 10:10:48;;;;;;;8.95;4.88;;;;;;;;;;5095785;28;20133;-74
2023/12/19 10:13:25;;;;;;;8.82;5.07;;;;;;;;;;5085613;28;20047;-75
2023/12/19 10:16:01;;;;;;;10.32;5.05;;;;;;;;;;5043809;28;20040;-74
2023/12/19 10:18:27;;;;;;;11.18;5.13;;;;;;;;;;5089089;28;20066;-75
2023/12/19 10:21:03;;;;;;;11.93;6.47;;;;;;;;;;5093100;28;20044;-74
2023/12/19 10:23:29;;;;;;;9.35;5.45;;;;;;;;;;5089101;28;20151;-74
2023/12/19 10:25:55;;;;;;;9.27;5.47;;;;;;;;;;5087178;28;20040;-75
2023/12/19 10:28:21;;;;;;;9.35;5.93;;;;;;;;;;5066815;28;20043;-74
2023/12/19 10:30:47;;;;;;;10.05;5.97;;;;;;;;;;5086626;28;20040;-75
2023/12/19 10:33:14;;;;;;;9.93;6.13;;;;;;;;;;5090242;28;20044;-75
2023/12/19 10:35:40;;;;;;;11.48;6.53;;;;;;;;;;5094063;28;20452;-74
2023/12/19 10:38:07;;;;;;;11.55;6.82;;;;;;;;;;5090093;28;20074;-74
2023/12/19 10:40:33;;;;;;;10.07;6.90;;;;;;;;;;5085750;28;20043;-75
2023/12/19 10:43:00;;;;;;;11.95;7.32;;;;;;;;;;5085354;28;20117;-75
2023/12/19 10:45:27;;;;;;;11.02;6.78;;;;;;;;;;5088187;28;20170;-75
2023/12/19 10:47:53;;;;;;;16.35;8.70;;;;;;;;;;5088288;28;20096;-75
2023/12/19 10:50:19;;;;;;;13.80;8.68;;;;;;;;;;5085867;28;20156;-75
2023/12/19 10:52:48;;;;;;;13.40;9.05;;;;;;;;;;5065076;28;20052;-75
2023/12/19 10:55:21;;;;;;;15.50;9.80;;;;;;;;;;5082482;28;20066;-74
2023/12/19 10:57:48;;;;;;;14.88;9.95;;;;;;;;;;5066748;28;20056;-75
2023/12/19 11:00:21;;;;;;;16.00;10.73;;;;;;;;;;5086050;28;20051;-75
2023/12/19 11:02:50;;;;;;;16.73;11.02;;;;;;;;;;5084601;28;20156;-74
2023/12/19 11:05:36;;;;;;;14.40;10.25;;;;;;;;;;5084576;28;20059;-75
2023/12/19 11:08:09;;;;;;;15.65;10.32;;;;;;;;;;5087411;28;20048;-75
2023/12/19 11:10:39;;;;;;;13.18;9.80;;;;;;;;;;5084163;28;20048;-75
2023/12/19 11:13:05;;;;;;;15.40;10.82;;;;;;;;;;5067754;28;22570;-75
2023/12/19 11:15:32;;;;;;;14.63;10.40;;;;;;;;;;5083486;28;20093;-75
2023/12/19 11:18:15;;;;;;;16.50;12.15;;;;;;;;;;5085494;28;20181;-75
2023/12/19 11:20:46;;;;;;;17.02;11.02;;;;;;;;;;5085954;28;20101;-75
2023/12/19 11:23:32;;;;;;;14.73;10.88;;;;;;;;;;5086900;28;20074;-75
2023/12/19 11:26:03;;;;;;;16.05;11.77;;;;;;;;;;5084135;28;20032;-75
2023/12/19 11:28:36;;;;;;;16.70;12.90;;;;;;;;;;5088803;28;20083;-75
2023/12/19 11:31:02;;;;;;;19.67;13.48;;;;;;;;;;5083407;28;20505;-75
2023/12/19 11:33:29;;;;;;;19.75;13.70;;;;;;;;;;5083766;28;20047;-75
2023/12/19 11:35:56;;;;;;;19.52;13.95;;;;;;;;;;5067124;28;20048;-75
2023/12/19 11:38:25;;;;;;;19.48;13.95;;;;;;;;;;5086318;28;20091;-75
2023/12/19 11:40:52;;;;;;;16.70;12.48;;;;;;;;;;5084341;28;20143;-75
2023/12/19 11:43:27;;;;;;;16.90;13.20;;;;;;;;;;5084603;28;20056;-75
2023/12/19 11:45:56;;;;;;;19.70;14.40;;;;;;;;;;5085021;28;20050;-75
2023/12/19 11:48:38;;;;;;;17.05;12.68;;;;;;;;;;5088511;28;20501;-75
2023/12/19 11:51:04;;;;;;;;;;;;;;;;;;5074225;28;20056;-75
2023/12/19 11:53:30;;;;;;;16.80;12.43;;;;;;;;;;5085389;28;19920;-75
2023/12/19 11:56:17;;;;;;;17.38;13.15;;;;;;;;;;5075053;28;20129;-75
2023/12/19 11:58:47;;;;;;;18.98;13.52;;;;;;;;;;5072735;28;20362;-75
2023/12/19 12:01:13;;;;;;;16.08;12.88;;;;;;;;;;5079766;28;20366;-75
2023/12/19 12:03:39;;;;;;;18.77;13.85;;;;;;;;;;5082236;28;20051;-75
2023/12/19 12:06:06;;;;;;;18.77;14.20;;;;;;;;;;5066403;28;20051;-75
2023/12/19 12:08:32;;;;;;;21.17;14.98;;;;;;;;;;5086872;28;20148;-75
2023/12/19 12:11:01;;;;;;;20.05;14.73;;;;;;;;;;5083122;28;20101;-75
2023/12/19 12:13:27;;;;;;;17.63;13.98;;;;;;;;;;5085445;28;20530;-75
2023/12/19 12:15:54;;;;;;;20.23;14.05;;;;;;;;;;5079158;28;20056;-75
2023/12/19 12:18:20;;;;;;;20.05;14.75;;;;;;;;;;5085878;28;20830;-75
2023/12/19 12:20:46;;;;;;;19.88;14.23;;;;;;;;;;5087323;28;20064;-75
2023/12/19 12:23:12;;;;;;;21.25;16.23;;;;;;;;;;5082491;28;20101;-75
2023/12/19 12:25:38;;;;;;;19.45;14.30;;;;;;;;;;5082324;28;20059;-75
2023/12/19 12:28:08;;;;;;;19.52;14.93;;;;;;;;;;5082287;28;20040;-75
2023/12/19 12:30:35;;;;;;;21.45;14.80;;;;;;;;;;5086728;28;20384;-75
2023/12/19 12:33:03;;;;;;;19.13;14.45;;;;;;;;;;5083049;28;20135;-75
2023/12/19 12:35:35;;;;;;;19.02;14.60;;;;;;;;;;5066062;28;20040;-75
2023/12/19 12:38:01;;;;;;;;;;;;;;;;;;5084538;28;20397;-75
2023/12/19 12:40:28;;;;;;;15.80;12.07;;;;;;;;;;5087172;28;19930;-75
2023/12/19 12:43:14;;;;;;;16.33;12.77;;;;;;;;;;5079549;28;20039;-75
2023/12/19 12:45:41;;;;;;;17.25;12.82;;;;;;;;;;5075332;28;20127;-75
2023/12/19 12:48:13;;;;;;;19.00;13.52;;;;;;;;;;5087363;28;20056;-75
2023/12/19 12:50:40;;;;;;;16.45;11.80;;;;;;;;;;5090301;28;20477;-75
2023/12/19 12:53:12;;;;;;;16.25;12.07;;;;;;;;;;5072500;28;20080;-75
2023/12/19 12:55:38;;;;;;;15.18;11.93;;;;;;;;;;5072662;28;20045;-75
2023/12/19 12:58:04;;;;;;;16.50;12.10;;;;;;;;;;5072547;28;20486;-75
2023/12/19 13:00:30;;;;;;;16.30;12.68;;;;;;;;;;5075972;28;20500;-75
2023/12/19 13:02:56;;;;;;;18.20;12.57;;;;;;;;;;5083032;28;20539;-75
2023/12/19 13:05:23;;;;;;;17.85;13.05;;;;;;;;;;5086016;28;20048;-75
2023/12/19 13:07:50;;;;;;;17.38;11.77;;;;;;;;;;5081416;28;20053;-75
2023/12/19 13:10:16;;;;;;;21.70;15.32;;;;;;;;;;5072168;28;20131;-75
2023/12/19 13:12:43;;;;;;;14.98;11.50;;;;;;;;;;5072134;28;20462;-75
2023/12/19 13:15:09;;;;;;;17.05;11.63;;;;;;;;;;5071760;28;20067;-75
2023/12/19 13:17:36;;;;;;;16.27;11.70;;;;;;;;;;5054180;28;20446;-75
2023/12/19 13:20:03;;;;;;;17.00;11.38;;;;;;;;;;5072148;28;20484;-75
2023/12/19 13:22:29;;;;;;;15.27;10.23;;;;;;;;;;5065767;28;20059;-75
2023/12/19 13:24:55;;;;;;;13.75;10.15;;;;;;;;;;5073940;28;20055;-75
2023/12/19 13:27:21;;;;;;;14.15;10.43;;;;;;;;;;5092175;28;20188;-75
2023/12/19 13:29:47;;;;;;;11.95;8.93;;;;;;;;;;5092468;28;20063;-75
2023/12/19 13:32:13;;;;;;;12.85;9.25;;;;;;;;;;5081252;28;20523;-75
2023/12/19 13:34:40;;;;;;;12.07;8.65;;;;;;;;;;5072021;28;20083;-74
2023/12/19 13:37:07;;;;;;;12.90;9.02;;;;;;;;;;5054069;28;20044;-75
2023/12/19 13:39:33;;;;;;;12.18;8.80;;;;;;;;;;5067980;28;20478;-75
2023/12/19 13:42:00;;;;;;;11.45;7.72;;;;;;;;;;5091103;28;20048;-75
2023/12/19 13:44:26;;;;;;;11.63;8.38;;;;;;;;;;5083838;28;20036;-75
2023/12/19 13:46:52;;;;;;;10.25;7.05;;;;;;;;;;5077525;28;20059;-75
2023/12/19 13:49:19;;;;;;;11.07;7.88;;;;;;;;;;5087156;28;20040;-75
2023/12/19 13:51:45;;;;;;;10.48;7.63;;;;;;;;;;5076905;28;20123;-75
2023/12/19 13:54:11;;;;;;;9.98;7.22;;;;;;;;;;5039315;28;20041;-75
2023/12/19 13:56:37;;;;;;;9.05;6.47;;;;;;;;;;5079137;28;20059;-75
2023/12/19 13:59:06;;;;;;;11.07;6.60;;;;;;;;;;5076071;28;20370;-75
2023/12/19 14:01:32;;;;;;;8.38;6.25;;;;;;;;;;5084717;28;20501;-75
2023/12/19 14:03:59;;;;;;;11.63;8.10;;;;;;;;;;5081350;28;20166;-75
2023/12/19 14:06:25;;;;;;;10.23;7.53;;;;;;;;;;5084513;28;20051;-75
2023/12/19 14:08:51;;;;;;;11.77;8.48;;;;;;;;;;5091013;28;20036;-75
2023/12/19 14:11:18;;;;;;;10.38;8.07;;;;;;;;;;5091912;28;20489;-75
2023/12/19 14:13:44;;;;;;;9.55;7.05;;;;;;;;;;5079606;28;20071;-75
2023/12/19 14:16:11;;;;;;;9.65;6.53;;;;;;;;;;5085822;28;20067;-75
2023/12/19 14:18:37;;;;;;;10.15;7.65;;;;;;;;;;5087650;28;20055;-75
2023/12/19 14:21:03;;;;;;;11.10;7.10;;;;;;;;;;5075245;28;20121;-75
2023/12/19 14:23:29;;;;;;;9.88;7.10;;;;;;;;;;5093541;28;20515;-75
2023/12/19 14:25:55;;;;;;;10.38;7.38;;;;;;;;;;5089710;28;20513;-75